createdAt,value
2018-08-23T00:01:09.892Z,0
2018-08-23T00:02:25.806Z,0
2018-08-23T00:03:41.795Z,0
2018-08-23T00:04:57.584Z,0
2018-08-23T00:06:13.484Z,0
2018-08-23T00:07:29.461Z,0
2018-08-23T00:08:46.360Z,0
2018-08-23T00:10:02.250Z,0
2018-08-23T00:11:18.145Z,0
2018-08-23T00:12:34.036Z,0
2018-08-23T00:13:49.925Z,0
2018-08-23T00:15:05.842Z,0
2018-08-23T00:16:21.732Z,0
2018-08-23T00:17:37.607Z,0
2018-08-23T00:18:53.578Z,0
2018-08-23T00:20:09.476Z,0
2018-08-23T00:21:25.410Z,0
2018-08-23T00:22:41.431Z,0
2018-08-23T00:23:57.305Z,0
2018-08-23T00:25:13.197Z,0
2018-08-23T00:26:29.126Z,0
2018-08-23T00:27:45.026Z,0
2018-08-23T00:29:00.943Z,0
2018-08-23T00:30:16.965Z,0
2018-08-23T00:31:33.111Z,0
2018-08-23T00:32:49.029Z,0
2018-08-23T00:34:04.958Z,0
2018-08-23T00:35:20.832Z,0
2018-08-23T00:36:36.777Z,0
2018-08-23T00:37:52.673Z,0
2018-08-23T00:39:08.585Z,0
2018-08-23T00:40:24.461Z,0
2018-08-23T00:41:40.377Z,0
2018-08-23T00:42:56.289Z,0
2018-08-23T00:44:12.185Z,0
2018-08-23T00:45:28.093Z,0
2018-08-23T00:46:44.161Z,0
2018-08-23T00:48:00.108Z,0
2018-08-23T00:49:16.034Z,0
2018-08-23T00:50:31.938Z,0
2018-08-23T00:51:47.960Z,0
2018-08-23T00:53:03.896Z,0
2018-08-23T00:54:19.878Z,0
2018-08-23T00:55:35.714Z,0
2018-08-23T00:56:51.641Z,0
2018-08-23T00:58:07.577Z,0
2018-08-23T00:59:23.478Z,0
2018-08-23T01:00:40.358Z,0
2018-08-23T01:01:56.235Z,0
2018-08-23T01:03:12.373Z,0
2018-08-23T01:04:28.471Z,0
2018-08-23T01:05:44.396Z,0
2018-08-23T01:07:00.283Z,0
2018-08-23T01:08:16.234Z,0
2018-08-23T01:09:32.137Z,0
2018-08-23T01:10:48.052Z,0
2018-08-23T01:12:03.988Z,0
2018-08-23T01:13:20.088Z,0
2018-08-23T01:14:36.112Z,0
2018-08-23T01:15:52.002Z,0
2018-08-23T01:17:07.943Z,0
2018-08-23T01:18:23.911Z,0
2018-08-23T01:19:39.790Z,0
2018-08-23T01:20:55.720Z,0
2018-08-23T01:22:11.627Z,0
2018-08-23T01:23:27.558Z,0
2018-08-23T01:24:43.555Z,0
2018-08-23T01:25:59.528Z,0
2018-08-23T01:27:15.464Z,0
2018-08-23T01:28:31.402Z,0
2018-08-23T01:29:47.339Z,0
2018-08-23T01:31:03.319Z,0
2018-08-23T01:32:19.249Z,0
2018-08-23T01:33:35.168Z,0
2018-08-23T01:34:51.097Z,0
2018-08-23T01:36:06.994Z,0
2018-08-23T01:37:22.914Z,0
2018-08-23T01:38:38.805Z,0
2018-08-23T01:39:54.734Z,0
2018-08-23T01:41:10.640Z,0
2018-08-23T01:42:26.544Z,0
2018-08-23T01:43:42.471Z,0
2018-08-23T01:44:58.372Z,0
2018-08-23T01:46:14.259Z,0
2018-08-23T01:47:30.198Z,0
2018-08-23T01:48:46.156Z,0
2018-08-23T01:50:02.034Z,0
2018-08-23T01:51:17.982Z,0
2018-08-23T01:52:33.947Z,0
2018-08-23T01:53:49.902Z,0
2018-08-23T01:55:05.927Z,0
2018-08-23T01:56:21.907Z,0
2018-08-23T01:57:37.797Z,0
2018-08-23T01:58:53.800Z,0
2018-08-23T02:00:09.776Z,0
2018-08-23T02:01:25.687Z,0
2018-08-23T02:02:41.612Z,0
2018-08-23T02:03:57.553Z,0
2018-08-23T02:05:13.435Z,0
2018-08-23T02:06:29.444Z,0
2018-08-23T02:07:45.455Z,0
2018-08-23T02:09:01.357Z,0
2018-08-23T02:10:17.280Z,0
2018-08-23T02:11:33.175Z,0
2018-08-23T02:12:49.053Z,0
2018-08-23T02:14:04.909Z,0
2018-08-23T02:15:20.852Z,0
2018-08-23T02:16:36.822Z,0
2018-08-23T02:17:52.699Z,0
2018-08-23T02:19:08.609Z,0
2018-08-23T02:20:24.545Z,0
2018-08-23T02:21:40.415Z,0
2018-08-23T02:22:56.322Z,0
2018-08-23T02:24:12.280Z,0
2018-08-23T02:25:28.225Z,0
2018-08-23T02:26:44.144Z,0
2018-08-23T02:28:00.061Z,0
2018-08-23T02:29:16.952Z,0
2018-08-23T02:30:32.844Z,0
2018-08-23T02:31:48.762Z,0
2018-08-23T02:33:04.646Z,0
2018-08-23T02:34:20.680Z,0
2018-08-23T02:35:36.607Z,0
2018-08-23T02:36:52.544Z,0
2018-08-23T02:38:08.505Z,0
2018-08-23T02:39:24.359Z,0
2018-08-23T02:40:40.311Z,0
2018-08-23T02:41:56.236Z,0
2018-08-23T02:43:12.160Z,0
2018-08-23T02:44:28.146Z,0
2018-08-23T02:45:44.046Z,0
2018-08-23T02:47:00.023Z,0
2018-08-23T02:48:16.054Z,0
2018-08-23T02:49:32.023Z,0
2018-08-23T02:50:47.924Z,0
2018-08-23T02:52:03.890Z,0
2018-08-23T02:53:19.952Z,0
2018-08-23T02:54:35.868Z,0
2018-08-23T02:55:51.818Z,0
2018-08-23T02:57:07.794Z,0
2018-08-23T02:58:23.765Z,0
2018-08-23T02:59:39.737Z,0
2018-08-23T03:00:55.775Z,0
2018-08-23T03:02:11.887Z,0
2018-08-23T03:03:27.900Z,0
2018-08-23T03:04:43.815Z,0
2018-08-23T03:05:59.919Z,0
2018-08-23T03:07:15.874Z,0
2018-08-23T03:08:31.796Z,0
2018-08-23T03:09:47.736Z,0
2018-08-23T03:11:03.629Z,0
2018-08-23T03:12:19.560Z,0
2018-08-23T03:13:35.482Z,0
2018-08-23T03:14:51.485Z,0
2018-08-23T03:16:07.451Z,0
2018-08-23T03:17:23.349Z,0
2018-08-23T03:18:40.318Z,0
2018-08-23T03:19:56.215Z,0
2018-08-23T03:21:12.136Z,0
2018-08-23T03:22:28.075Z,0
2018-08-23T03:23:43.928Z,0
2018-08-23T03:24:59.874Z,0
2018-08-23T03:26:15.797Z,0
2018-08-23T03:27:31.829Z,0
2018-08-23T03:28:47.746Z,0
2018-08-23T03:30:03.648Z,0
2018-08-23T03:31:19.540Z,0
2018-08-23T03:32:35.453Z,0
2018-08-23T03:33:51.346Z,0
2018-08-23T03:35:07.284Z,0
2018-08-23T03:36:23.257Z,0
2018-08-23T03:37:39.190Z,0
2018-08-23T03:38:55.122Z,0
2018-08-23T03:40:11.025Z,0
2018-08-23T03:41:26.911Z,0
2018-08-23T03:42:42.798Z,0
2018-08-23T03:43:58.805Z,0
2018-08-23T03:45:14.715Z,0
2018-08-23T03:46:30.637Z,0
2018-08-23T03:47:46.554Z,0
2018-08-23T03:49:02.461Z,0
2018-08-23T03:50:18.445Z,0
2018-08-23T03:51:34.353Z,0
2018-08-23T03:52:50.368Z,0
2018-08-23T03:54:06.209Z,0
2018-08-23T03:55:22.330Z,0
2018-08-23T03:56:38.368Z,0
2018-08-23T03:57:54.284Z,0
2018-08-23T03:59:10.162Z,0
2018-08-23T04:00:26.099Z,0
2018-08-23T04:01:42.074Z,0
2018-08-23T04:02:57.979Z,0
2018-08-23T04:04:13.946Z,0
2018-08-23T04:05:29.950Z,0
2018-08-23T04:06:45.890Z,0
2018-08-23T04:08:01.762Z,0
2018-08-23T04:09:17.776Z,0
2018-08-23T04:10:33.719Z,0
2018-08-23T04:11:49.614Z,0
2018-08-23T04:13:05.546Z,0
2018-08-23T04:14:21.474Z,0
2018-08-23T04:15:38.372Z,0
2018-08-23T04:16:54.295Z,0
2018-08-23T04:18:10.209Z,0
2018-08-23T04:19:26.094Z,0
2018-08-23T04:20:42.065Z,0
2018-08-23T04:21:58.084Z,0
2018-08-23T04:23:14.004Z,0
2018-08-23T04:24:29.936Z,0
2018-08-23T04:25:45.835Z,0
2018-08-23T04:27:01.753Z,0
2018-08-23T04:28:17.680Z,0
2018-08-23T04:29:33.576Z,0
2018-08-23T04:30:49.513Z,0
2018-08-23T04:32:05.481Z,0
2018-08-23T04:33:21.446Z,0
2018-08-23T04:34:37.441Z,0
2018-08-23T04:35:53.393Z,0
2018-08-23T04:37:09.368Z,0
2018-08-23T04:38:25.279Z,0
2018-08-23T04:39:41.346Z,0
2018-08-23T04:40:57.334Z,0
2018-08-23T04:42:13.274Z,0
2018-08-23T04:43:29.204Z,0
2018-08-23T04:44:45.134Z,0
2018-08-23T04:46:01.034Z,0
2018-08-23T04:47:16.922Z,0
2018-08-23T04:48:32.935Z,0
2018-08-23T04:49:48.881Z,0
2018-08-23T04:51:04.767Z,0
2018-08-23T04:52:20.726Z,0
2018-08-23T04:53:36.764Z,0
2018-08-23T04:54:52.727Z,0
2018-08-23T04:56:08.650Z,0
2018-08-23T04:57:24.652Z,0
2018-08-23T04:58:40.611Z,0
2018-08-23T04:59:56.492Z,0
2018-08-23T05:01:12.565Z,0
2018-08-23T05:02:28.566Z,0
2018-08-23T05:03:44.505Z,0
2018-08-23T05:05:00.426Z,0
2018-08-23T05:06:16.401Z,0
2018-08-23T05:07:32.313Z,0
2018-08-23T05:08:48.296Z,0
2018-08-23T05:10:04.244Z,0
2018-08-23T05:11:21.332Z,0
2018-08-23T05:12:37.272Z,0
2018-08-23T05:13:53.239Z,0
2018-08-23T05:15:09.125Z,0
2018-08-23T05:16:25.054Z,0
2018-08-23T05:17:40.954Z,0
2018-08-23T05:18:56.856Z,0
2018-08-23T05:21:54.475Z,0
2018-08-23T05:23:10.464Z,0
2018-08-23T05:24:26.380Z,0
2018-08-23T05:25:42.421Z,0
2018-08-23T05:26:58.323Z,0
2018-08-23T05:28:14.447Z,0
2018-08-23T05:29:30.586Z,0
2018-08-23T05:30:46.694Z,0
2018-08-23T05:32:02.595Z,0
2018-08-23T05:33:18.515Z,0
2018-08-23T05:34:34.437Z,0
2018-08-23T05:35:50.324Z,0
2018-08-23T05:37:06.266Z,0
2018-08-23T05:38:22.290Z,0
2018-08-23T05:39:38.257Z,5.625
2018-08-23T05:40:54.138Z,5.625
2018-08-23T05:42:10.094Z,5.625
2018-08-23T05:43:26.106Z,5.625
2018-08-23T05:44:42.041Z,5.625
2018-08-23T05:45:57.975Z,5.625
2018-08-23T05:47:13.869Z,5.625
2018-08-23T05:48:29.765Z,5.625
2018-08-23T05:49:45.662Z,5.625
2018-08-23T05:51:01.736Z,5.625
2018-08-23T05:52:17.780Z,5.625
2018-08-23T05:53:33.851Z,5.625
2018-08-23T05:54:49.729Z,5.625
2018-08-23T05:56:05.667Z,5.625
2018-08-23T05:57:21.658Z,5.625
2018-08-23T05:58:37.546Z,5.625
2018-08-23T05:59:53.463Z,5.625
2018-08-23T06:01:09.398Z,5.625
2018-08-23T06:02:25.367Z,5.625
2018-08-23T06:03:41.274Z,5.625
2018-08-23T06:04:57.289Z,5.625
2018-08-23T06:06:13.246Z,5.625
2018-08-23T06:07:29.188Z,5.625
2018-08-23T06:08:45.153Z,5.625
2018-08-23T06:10:01.062Z,5.625
2018-08-23T06:11:17.030Z,11.25
2018-08-23T06:12:32.931Z,11.25
2018-08-23T06:13:48.825Z,11.25
2018-08-23T06:15:04.772Z,11.25
2018-08-23T06:16:20.694Z,11.25
2018-08-23T06:17:36.679Z,11.25
2018-08-23T06:18:52.721Z,11.25
2018-08-23T06:20:09.458Z,11.25
2018-08-23T06:21:24.633Z,11.25
2018-08-23T06:22:40.590Z,11.25
2018-08-23T06:23:56.563Z,11.25
2018-08-23T06:25:12.500Z,11.25
2018-08-23T06:26:28.409Z,11.25
2018-08-23T06:27:44.356Z,11.25
2018-08-23T06:29:00.271Z,11.25
2018-08-23T06:30:16.174Z,11.25
2018-08-23T06:31:32.221Z,11.25
2018-08-23T06:32:48.203Z,11.25
2018-08-23T06:34:04.086Z,16.875
2018-08-23T06:35:20.084Z,16.875
2018-08-23T06:36:35.972Z,16.875
2018-08-23T06:37:51.858Z,16.875
2018-08-23T06:39:07.793Z,16.875
2018-08-23T06:40:23.745Z,16.875
2018-08-23T06:41:39.664Z,16.875
2018-08-23T06:42:55.571Z,16.875
2018-08-23T06:44:11.477Z,16.875
2018-08-23T06:45:27.387Z,16.875
2018-08-23T06:46:43.300Z,16.875
2018-08-23T06:47:59.294Z,16.875
2018-08-23T06:49:15.218Z,16.875
2018-08-23T06:50:31.143Z,22.5
2018-08-23T06:51:47.012Z,22.5
2018-08-23T06:53:02.948Z,22.5
2018-08-23T06:54:18.815Z,22.5
2018-08-23T06:55:34.734Z,22.5
2018-08-23T06:56:50.620Z,22.5
2018-08-23T06:58:06.544Z,22.5
2018-08-23T06:59:22.492Z,22.5
2018-08-23T07:00:38.435Z,22.5
2018-08-23T07:01:54.359Z,22.5
2018-08-23T07:03:10.369Z,28.125
2018-08-23T07:04:26.321Z,28.125
2018-08-23T07:05:42.236Z,28.125
2018-08-23T07:06:58.242Z,28.125
2018-08-23T07:08:14.160Z,28.125
2018-08-23T07:09:30.080Z,28.125
2018-08-23T07:10:45.968Z,28.125
2018-08-23T07:12:01.926Z,28.125
2018-08-23T07:13:17.860Z,28.125
2018-08-23T07:14:33.759Z,28.125
2018-08-23T07:15:49.840Z,33.75
2018-08-23T07:17:05.804Z,33.75
2018-08-23T07:18:21.734Z,33.75
2018-08-23T07:19:37.639Z,33.75
2018-08-23T07:20:53.535Z,33.75
2018-08-23T07:22:09.561Z,33.75
2018-08-23T07:23:25.456Z,33.75
2018-08-23T07:24:41.408Z,33.75
2018-08-23T07:25:57.332Z,33.75
2018-08-23T07:27:13.276Z,39.375
2018-08-23T07:28:29.197Z,39.375
2018-08-23T07:29:45.206Z,39.375
2018-08-23T07:31:00.988Z,39.375
2018-08-23T07:32:16.932Z,39.375
2018-08-23T07:33:32.881Z,39.375
2018-08-23T07:34:48.729Z,39.375
2018-08-23T07:36:04.667Z,45
2018-08-23T07:37:20.579Z,45
2018-08-23T07:38:36.511Z,45
2018-08-23T07:39:52.408Z,45
2018-08-23T07:41:08.297Z,45
2018-08-23T07:42:24.234Z,45
2018-08-23T07:43:40.246Z,50.625
2018-08-23T07:44:57.152Z,50.625
2018-08-23T07:46:13.048Z,50.625
2018-08-23T07:47:29.032Z,50.625
2018-08-23T07:48:45.148Z,50.625
2018-08-23T07:50:00.974Z,50.625
2018-08-23T07:51:16.952Z,50.625
2018-08-23T07:52:32.995Z,56.25
2018-08-23T07:53:48.838Z,56.25
2018-08-23T07:55:04.732Z,61.875
2018-08-23T07:56:20.660Z,61.875
2018-08-23T07:57:36.671Z,61.875
2018-08-23T07:58:52.603Z,61.875
2018-08-23T08:00:08.510Z,78.75
2018-08-23T08:01:24.462Z,84.375
2018-08-23T08:02:40.377Z,84.375
2018-08-23T08:03:56.285Z,84.375
2018-08-23T08:05:12.202Z,84.375
2018-08-23T08:06:29.165Z,84.375
2018-08-23T08:07:45.106Z,84.375
2018-08-23T08:09:01.024Z,84.375
2018-08-23T08:10:16.957Z,84.375
2018-08-23T08:11:32.891Z,84.375
2018-08-23T08:12:48.922Z,84.375
2018-08-23T08:14:04.854Z,78.75
2018-08-23T08:15:21.005Z,78.75
2018-08-23T08:16:36.800Z,78.75
2018-08-23T08:17:52.765Z,84.375
2018-08-23T08:19:09.680Z,84.375
2018-08-23T08:20:25.575Z,84.375
2018-08-23T08:21:41.564Z,84.375
2018-08-23T08:22:57.446Z,84.375
2018-08-23T08:24:13.375Z,84.375
2018-08-23T08:25:29.310Z,67.5
2018-08-23T08:26:45.207Z,67.5
2018-08-23T08:28:01.142Z,73.125
2018-08-23T08:29:17.051Z,73.125
2018-08-23T08:30:33.071Z,67.5
2018-08-23T08:31:49.129Z,73.125
2018-08-23T08:33:05.121Z,78.75
2018-08-23T08:34:20.999Z,73.125
2018-08-23T08:35:36.917Z,78.75
2018-08-23T08:36:52.862Z,84.375
2018-08-23T08:38:08.855Z,84.375
2018-08-23T08:39:24.932Z,90
2018-08-23T08:40:40.866Z,90
2018-08-23T08:41:56.827Z,95.625
2018-08-23T08:43:12.765Z,90
2018-08-23T08:44:28.833Z,84.375
2018-08-23T08:45:44.758Z,84.375
2018-08-23T08:47:00.666Z,78.75
2018-08-23T08:48:16.582Z,78.75
2018-08-23T08:49:32.570Z,84.375
2018-08-23T08:50:48.457Z,84.375
2018-08-23T08:52:04.349Z,84.375
2018-08-23T08:53:20.286Z,78.75
2018-08-23T08:54:36.285Z,78.75
2018-08-23T08:55:52.197Z,73.125
2018-08-23T08:57:08.150Z,73.125
2018-08-23T08:58:24.072Z,67.5
2018-08-23T08:59:40.046Z,73.125
2018-08-23T09:00:55.995Z,73.125
2018-08-23T09:02:11.907Z,73.125
2018-08-23T09:03:27.830Z,73.125
2018-08-23T09:04:43.817Z,73.125
2018-08-23T09:05:59.737Z,73.125
2018-08-23T09:07:15.625Z,78.75
2018-08-23T09:08:31.501Z,73.125
2018-08-23T09:09:47.427Z,73.125
2018-08-23T09:11:03.353Z,78.75
2018-08-23T09:12:19.495Z,90
2018-08-23T09:13:35.430Z,90
2018-08-23T09:14:51.492Z,90
2018-08-23T09:16:07.488Z,84.375
2018-08-23T09:17:23.435Z,78.75
2018-08-23T09:18:39.381Z,78.75
2018-08-23T09:19:55.297Z,78.75
2018-08-23T09:21:11.251Z,84.375
2018-08-23T09:22:27.191Z,95.625
2018-08-23T09:23:43.255Z,95.625
2018-08-23T09:24:59.184Z,95.625
2018-08-23T09:26:15.165Z,90
2018-08-23T09:27:31.170Z,95.625
2018-08-23T09:28:47.116Z,101.25
2018-08-23T09:30:03.038Z,101.25
2018-08-23T09:31:18.991Z,101.25
2018-08-23T09:32:35.015Z,101.25
2018-08-23T09:33:51.032Z,106.875
2018-08-23T09:35:06.999Z,106.875
2018-08-23T09:36:22.921Z,90
2018-08-23T09:37:38.868Z,90
2018-08-23T09:38:54.805Z,90
2018-08-23T09:40:10.711Z,90
2018-08-23T09:41:26.677Z,90
2018-08-23T09:42:42.616Z,84.375
2018-08-23T09:43:58.535Z,90
2018-08-23T09:45:14.457Z,90
2018-08-23T09:46:30.387Z,101.25
2018-08-23T09:47:46.362Z,106.875
2018-08-23T09:49:02.339Z,106.875
2018-08-23T09:50:18.559Z,106.875
2018-08-23T09:51:34.399Z,90
2018-08-23T09:52:50.317Z,90
2018-08-23T09:54:06.287Z,90
2018-08-23T09:55:22.206Z,90
2018-08-23T09:56:38.178Z,90
2018-08-23T09:57:54.092Z,90
2018-08-23T09:59:10.029Z,95.625
2018-08-23T10:00:25.972Z,106.875
2018-08-23T10:01:41.878Z,106.875
2018-08-23T10:02:57.842Z,106.875
2018-08-23T10:04:13.788Z,106.875
2018-08-23T10:05:29.637Z,112.5
2018-08-23T10:06:45.640Z,112.5
2018-08-23T10:08:01.524Z,112.5
2018-08-23T10:09:17.453Z,112.5
2018-08-23T10:10:33.460Z,118.125
2018-08-23T10:11:49.378Z,112.5
2018-08-23T10:13:05.255Z,112.5
2018-08-23T10:14:21.222Z,112.5
2018-08-23T10:15:37.148Z,106.875
2018-08-23T10:16:53.155Z,106.875
2018-08-23T10:18:09.070Z,112.5
2018-08-23T10:19:25.052Z,112.5
2018-08-23T10:20:40.955Z,112.5
2018-08-23T10:21:56.893Z,106.875
2018-08-23T10:23:12.925Z,112.5
2018-08-23T10:24:28.900Z,112.5
2018-08-23T10:25:44.788Z,106.875
2018-08-23T10:27:00.751Z,106.875
2018-08-23T10:28:16.694Z,106.875
2018-08-23T10:29:32.571Z,112.5
2018-08-23T10:30:48.497Z,106.875
2018-08-23T10:32:04.432Z,112.5
2018-08-23T10:33:20.350Z,118.125
2018-08-23T10:34:36.247Z,112.5
2018-08-23T10:35:52.170Z,112.5
2018-08-23T10:37:08.115Z,112.5
2018-08-23T10:38:24.051Z,101.25
2018-08-23T10:39:40.104Z,106.875
2018-08-23T10:40:56.027Z,101.25
2018-08-23T10:42:12.088Z,106.875
2018-08-23T10:43:28.005Z,106.875
2018-08-23T10:44:44.037Z,106.875
2018-08-23T10:45:59.974Z,106.875
2018-08-23T10:47:15.966Z,106.875
2018-08-23T10:48:31.905Z,112.5
2018-08-23T10:49:47.921Z,106.875
2018-08-23T10:51:03.893Z,95.625
2018-08-23T10:52:19.833Z,101.25
2018-08-23T10:53:35.766Z,95.625
2018-08-23T10:54:51.743Z,101.25
2018-08-23T10:56:08.640Z,101.25
2018-08-23T10:57:24.621Z,101.25
2018-08-23T10:58:40.586Z,95.625
2018-08-23T10:59:56.517Z,101.25
2018-08-23T11:01:12.465Z,95.625
2018-08-23T11:02:28.406Z,90
2018-08-23T11:03:44.308Z,90
2018-08-23T11:05:00.235Z,95.625
2018-08-23T11:06:16.151Z,78.75
2018-08-23T11:07:32.027Z,90
2018-08-23T11:08:47.981Z,84.375
2018-08-23T11:10:03.866Z,73.125
2018-08-23T11:11:20.610Z,61.875
2018-08-23T11:12:36.541Z,61.875
2018-08-23T11:13:52.455Z,61.875
2018-08-23T11:15:08.355Z,61.875
2018-08-23T11:16:24.283Z,61.875
2018-08-23T11:17:40.218Z,61.875
2018-08-23T11:18:56.179Z,61.875
2018-08-23T11:20:12.077Z,61.875
2018-08-23T11:21:28.106Z,61.875
2018-08-23T11:22:44.102Z,67.5
2018-08-23T11:24:00.000Z,67.5
2018-08-23T11:25:15.924Z,73.125
2018-08-23T11:26:32.014Z,78.75
2018-08-23T11:27:47.951Z,90
2018-08-23T11:29:03.884Z,95.625
2018-08-23T11:30:19.832Z,95.625
2018-08-23T11:31:35.834Z,106.875
2018-08-23T11:32:51.781Z,106.875
2018-08-23T11:34:07.715Z,118.125
2018-08-23T11:35:23.720Z,118.125
2018-08-23T11:36:39.635Z,112.5
2018-08-23T11:37:55.586Z,106.875
2018-08-23T11:39:11.577Z,112.5
2018-08-23T11:40:27.456Z,112.5
2018-08-23T11:41:43.349Z,112.5
2018-08-23T11:42:59.231Z,112.5
2018-08-23T11:44:15.290Z,106.875
2018-08-23T11:45:31.200Z,106.875
2018-08-23T11:46:47.129Z,106.875
2018-08-23T11:48:03.055Z,106.875
2018-08-23T11:49:18.999Z,106.875
2018-08-23T11:50:34.920Z,106.875
2018-08-23T11:51:50.837Z,106.875
2018-08-23T11:53:06.949Z,106.875
2018-08-23T11:54:22.840Z,106.875
2018-08-23T11:55:38.773Z,106.875
2018-08-23T11:56:54.644Z,106.875
2018-08-23T11:58:10.677Z,106.875
2018-08-23T11:59:26.549Z,106.875
2018-08-23T12:00:42.516Z,106.875
2018-08-23T12:01:58.414Z,106.875
2018-08-23T12:03:14.334Z,106.875
2018-08-23T12:04:30.260Z,106.875
2018-08-23T12:05:46.196Z,106.875
2018-08-23T12:07:02.121Z,106.875
2018-08-23T12:08:18.031Z,106.875
2018-08-23T12:09:33.951Z,106.875
2018-08-23T12:10:49.855Z,106.875
2018-08-23T12:12:05.753Z,106.875
2018-08-23T12:13:21.638Z,106.875
2018-08-23T12:14:37.571Z,106.875
2018-08-23T12:15:53.479Z,106.875
2018-08-23T12:17:09.519Z,106.875
2018-08-23T12:18:25.599Z,106.875
2018-08-23T12:19:41.555Z,106.875
2018-08-23T12:20:57.437Z,106.875
2018-08-23T12:22:13.353Z,106.875
2018-08-23T12:23:29.279Z,106.875
2018-08-23T12:24:45.208Z,106.875
2018-08-23T12:26:01.270Z,106.875
2018-08-23T12:27:17.069Z,106.875
2018-08-23T12:28:32.964Z,106.875
2018-08-23T12:29:48.976Z,106.875
2018-08-23T12:31:04.971Z,106.875
2018-08-23T12:32:20.893Z,106.875
2018-08-23T12:33:36.858Z,106.875
2018-08-23T12:34:52.868Z,106.875
2018-08-23T12:36:08.821Z,101.25
2018-08-23T12:37:24.783Z,106.875
2018-08-23T12:38:40.792Z,101.25
2018-08-23T12:39:56.718Z,101.25
2018-08-23T12:41:12.664Z,106.875
2018-08-23T12:42:28.596Z,106.875
2018-08-23T12:43:44.592Z,106.875
2018-08-23T12:45:00.460Z,106.875
2018-08-23T12:46:16.376Z,106.875
2018-08-23T12:47:32.293Z,106.875
2018-08-23T12:48:48.259Z,106.875
2018-08-23T12:50:04.220Z,106.875
2018-08-23T12:51:20.189Z,106.875
2018-08-23T12:52:36.157Z,106.875
2018-08-23T12:53:52.121Z,106.875
2018-08-23T12:55:08.043Z,112.5
2018-08-23T12:56:24.017Z,106.875
2018-08-23T12:57:39.920Z,112.5
2018-08-23T12:58:55.838Z,106.875
2018-08-23T13:00:11.822Z,106.875
2018-08-23T13:01:27.783Z,106.875
2018-08-23T13:02:43.886Z,106.875
2018-08-23T13:03:59.724Z,106.875
2018-08-23T13:05:15.739Z,106.875
2018-08-23T13:06:31.734Z,106.875
2018-08-23T13:07:47.618Z,106.875
2018-08-23T13:09:03.642Z,106.875
2018-08-23T13:10:19.620Z,106.875
2018-08-23T13:11:35.547Z,106.875
2018-08-23T13:12:51.444Z,112.5
2018-08-23T13:14:07.432Z,112.5
2018-08-23T13:15:23.344Z,112.5
2018-08-23T13:16:39.278Z,112.5
2018-08-23T13:17:55.341Z,112.5
2018-08-23T13:19:11.237Z,112.5
2018-08-23T13:20:27.186Z,112.5
2018-08-23T13:21:43.130Z,112.5
2018-08-23T13:22:59.063Z,112.5
2018-08-23T13:24:14.974Z,112.5
2018-08-23T13:25:30.962Z,112.5
2018-08-23T13:26:47.007Z,106.875
2018-08-23T13:28:02.914Z,106.875
2018-08-23T13:29:18.808Z,106.875
2018-08-23T13:30:34.750Z,101.25
2018-08-23T13:31:50.643Z,95.625
2018-08-23T13:33:06.544Z,73.125
2018-08-23T13:34:23.501Z,56.25
2018-08-23T13:35:39.493Z,56.25
2018-08-23T13:36:55.433Z,61.875
2018-08-23T13:38:11.364Z,78.75
2018-08-23T13:39:27.315Z,84.375
2018-08-23T13:40:43.343Z,101.25
2018-08-23T13:41:59.369Z,106.875
2018-08-23T13:43:15.191Z,106.875
2018-08-23T13:44:31.122Z,112.5
2018-08-23T13:45:47.067Z,101.25
2018-08-23T13:47:02.966Z,106.875
2018-08-23T13:48:18.946Z,112.5
2018-08-23T13:49:34.868Z,112.5
2018-08-23T13:50:50.918Z,101.25
2018-08-23T13:52:06.833Z,106.875
2018-08-23T13:53:22.747Z,101.25
2018-08-23T13:54:38.793Z,84.375
2018-08-23T13:55:54.640Z,112.5
2018-08-23T13:57:10.511Z,112.5
2018-08-23T13:58:26.492Z,112.5
2018-08-23T13:59:42.427Z,106.875
2018-08-23T14:00:58.371Z,106.875
2018-08-23T14:02:14.392Z,106.875
2018-08-23T14:03:30.239Z,106.875
2018-08-23T14:04:47.141Z,106.875
2018-08-23T14:06:03.128Z,106.875
2018-08-23T14:07:19.157Z,106.875
2018-08-23T14:08:35.019Z,90
2018-08-23T14:09:50.952Z,73.125
2018-08-23T14:11:06.923Z,67.5
2018-08-23T14:12:22.771Z,67.5
2018-08-23T14:13:38.704Z,67.5
2018-08-23T14:14:54.589Z,90
2018-08-23T14:16:10.491Z,90
2018-08-23T14:17:26.591Z,78.75
2018-08-23T14:18:42.494Z,50.625
2018-08-23T14:19:58.403Z,39.375
2018-08-23T14:21:14.347Z,33.75
2018-08-23T14:22:30.280Z,28.125
2018-08-23T14:23:46.202Z,28.125
2018-08-23T14:25:02.116Z,22.5
2018-08-23T14:26:18.023Z,22.5
2018-08-23T14:27:34.940Z,16.875
2018-08-23T14:28:50.967Z,16.875
2018-08-23T14:30:06.894Z,16.875
2018-08-23T14:31:22.840Z,16.875
2018-08-23T14:32:38.736Z,11.25
2018-08-23T14:33:54.692Z,11.25
2018-08-23T14:35:10.661Z,11.25
2018-08-23T14:36:26.607Z,11.25
2018-08-23T14:37:42.529Z,11.25
2018-08-23T14:38:58.495Z,5.625
2018-08-23T14:40:14.429Z,5.625
2018-08-23T14:41:30.297Z,5.625
2018-08-23T14:42:46.246Z,5.625
2018-08-23T14:44:02.257Z,5.625
2018-08-23T14:45:18.199Z,5.625
2018-08-23T14:46:34.158Z,5.625
2018-08-23T14:47:50.113Z,5.625
2018-08-23T14:49:06.090Z,5.625
2018-08-23T14:50:22.061Z,5.625
2018-08-23T14:51:38.016Z,5.625
2018-08-23T14:52:53.950Z,5.625
2018-08-23T14:54:09.943Z,5.625
2018-08-23T14:55:25.900Z,11.25
2018-08-23T14:56:41.919Z,11.25
2018-08-23T14:57:57.880Z,11.25
2018-08-23T14:59:14.036Z,11.25
2018-08-23T15:00:29.810Z,11.25
2018-08-23T15:01:45.777Z,11.25
2018-08-23T15:03:01.696Z,5.625
2018-08-23T15:04:17.610Z,5.625
2018-08-23T15:05:33.554Z,5.625
2018-08-23T15:06:49.458Z,5.625
2018-08-23T15:08:05.377Z,11.25
2018-08-23T15:09:21.349Z,11.25
2018-08-23T15:10:37.251Z,5.625
2018-08-23T15:11:53.179Z,5.625
2018-08-23T15:13:09.101Z,5.625
2018-08-23T15:14:25.028Z,5.625
2018-08-23T15:15:40.973Z,5.625
2018-08-23T15:16:56.900Z,5.625
2018-08-23T15:18:12.841Z,5.625
2018-08-23T15:19:28.807Z,5.625
2018-08-23T15:20:44.779Z,5.625
2018-08-23T15:22:00.938Z,0
2018-08-23T15:23:16.874Z,0
2018-08-23T15:24:32.823Z,0
2018-08-23T15:25:48.746Z,0
2018-08-23T15:27:04.889Z,0
2018-08-23T15:28:20.649Z,0
2018-08-23T15:29:36.685Z,0
2018-08-23T15:30:52.612Z,0
2018-08-23T15:32:08.520Z,0
2018-08-23T15:33:24.452Z,0
2018-08-23T15:34:40.333Z,0
2018-08-23T15:35:56.265Z,0
2018-08-23T15:37:12.237Z,0
2018-08-23T15:38:28.208Z,0
2018-08-23T15:39:44.108Z,0
2018-08-23T15:41:00.149Z,0
2018-08-23T15:42:16.062Z,0
2018-08-23T15:43:32.060Z,0
2018-08-23T15:44:48.062Z,0
2018-08-23T15:46:03.992Z,0
2018-08-23T15:47:19.921Z,0
2018-08-23T15:48:35.891Z,0
2018-08-23T15:49:51.836Z,0
2018-08-23T15:51:07.935Z,0
2018-08-23T15:52:23.859Z,0
2018-08-23T15:53:39.853Z,0
2018-08-23T15:54:55.887Z,0
2018-08-23T15:56:11.857Z,0
2018-08-23T15:57:27.723Z,0
2018-08-23T15:58:43.629Z,0
2018-08-23T15:59:59.601Z,0
2018-08-23T16:01:15.670Z,0
2018-08-23T16:02:31.645Z,0
2018-08-23T16:03:47.620Z,0
2018-08-23T16:05:04.609Z,0
2018-08-23T16:06:20.558Z,0
2018-08-23T16:07:36.546Z,0
2018-08-23T16:08:52.503Z,0
2018-08-23T16:10:08.582Z,0
2018-08-23T16:11:24.440Z,0
2018-08-23T16:12:40.386Z,0
2018-08-23T16:13:56.364Z,0
2018-08-23T16:15:12.337Z,0
2018-08-23T16:16:28.276Z,0
2018-08-23T16:17:44.207Z,0
2018-08-23T16:19:00.159Z,0
2018-08-23T16:20:16.164Z,0
2018-08-23T16:21:32.196Z,0
2018-08-23T16:22:48.203Z,0
2018-08-23T16:24:04.084Z,0
2018-08-23T16:25:20.046Z,0
2018-08-23T16:26:36.042Z,0
2018-08-23T16:27:52.101Z,0
2018-08-23T16:29:08.069Z,0
2018-08-23T16:30:24.037Z,0
2018-08-23T16:31:40.112Z,0
2018-08-23T16:32:56.047Z,0
2018-08-23T16:34:11.971Z,0
2018-08-23T16:35:27.917Z,0
2018-08-23T16:36:43.869Z,0
2018-08-23T16:37:59.818Z,0
2018-08-23T16:39:15.773Z,0
2018-08-23T16:40:31.678Z,0
2018-08-23T16:41:47.644Z,0
2018-08-23T16:43:03.615Z,0
2018-08-23T16:44:19.475Z,0
2018-08-23T16:45:35.419Z,0
2018-08-23T16:46:51.351Z,0
2018-08-23T16:48:07.362Z,0
2018-08-23T16:49:23.399Z,0
2018-08-23T16:50:39.366Z,0
2018-08-23T16:51:55.330Z,0
2018-08-23T16:53:11.372Z,0
2018-08-23T16:54:27.354Z,0
2018-08-23T16:55:43.284Z,0
2018-08-23T16:56:59.271Z,0
2018-08-23T16:59:55.760Z,0
2018-08-23T17:01:11.764Z,0
2018-08-23T17:02:27.752Z,0
2018-08-23T17:03:43.648Z,0
2018-08-23T17:04:59.600Z,0
2018-08-23T17:06:15.537Z,0
2018-08-23T17:07:31.517Z,0
2018-08-23T17:08:47.469Z,0
2018-08-23T17:10:03.537Z,5.625